Time;durP1;ratioP1;P1;durP2;ratioP2;P2;SDS_P1;SDS_P2;PMS_P1;PMS_P2;Temp;Humidity;BMP_temperature;BMP_pressure;BME280_temperature;BME280_humidity;BME280_pressure;Samples;Min_cycle;Max_cycle;Signal;HPM_P1;HPM_P2
2021/06/24 00:00:43;;;;;;;;;0.00;0.00;;;;;17.01;60.85;101594.00;5122710;27;45343;-68
2021/06/24 00:03:09;;;;;;;;;0.00;0.00;;;;;16.98;60.56;101590.81;5122285;27;45524;-68
2021/06/24 00:05:34;;;;;;;;;0.00;0.00;;;;;16.95;60.82;101589.28;5110400;27;45382;-70
2021/06/24 00:08:00;;;;;;;;;0.00;0.00;;;;;17.00;61.02;101597.66;5120699;27;45163;-69
2021/06/24 00:10:25;;;;;;;;;0.00;0.00;;;;;17.04;60.74;101603.53;5104344;27;45193;-67
2021/06/24 00:12:50;;;;;;;;;0.00;0.00;;;;;17.11;60.68;101603.81;5117382;27;45307;-67
2021/06/24 00:15:16;;;;;;;;;0.00;0.00;;;;;17.10;60.81;101597.63;5113769;27;46601;-67
2021/06/24 00:17:42;;;;;;;;;0.00;0.00;;;;;17.16;60.44;101596.25;5122439;27;45289;-68
2021/06/24 00:20:08;;;;;;;;;0.00;0.00;;;;;17.15;60.52;101602.53;5122920;27;45254;-67
2021/06/24 00:22:33;;;;;;;;;0.00;0.00;;;;;17.14;60.64;101608.81;5122269;27;45166;-68
2021/06/24 00:24:59;;;;;;;;;0.00;0.00;;;;;17.16;60.74;101605.03;5122328;27;45232;-68
2021/06/24 00:27:24;;;;;;;;;0.00;0.00;;;;;17.20;60.51;101601.13;5121991;27;45528;-67
2021/06/24 00:29:49;;;;;;;;;0.00;0.00;;;;;17.21;60.20;101591.34;5122499;27;45282;-67
2021/06/24 00:32:15;;;;;;;;;0.00;0.00;;;;;17.23;60.31;101589.38;5125976;27;45312;-67
2021/06/24 00:34:40;;;;;;;;;0.00;0.00;;;;;17.24;60.21;101583.09;5107425;27;48631;-67
2021/06/24 00:37:06;;;;;;;;;0.00;0.00;;;;;17.26;59.91;101590.94;5107223;27;45387;-67
2021/06/24 00:39:31;;;;;;;;;0.00;0.00;;;;;17.21;60.39;101588.69;5126020;27;45343;-67
2021/06/24 00:41:57;;;;;;;;;0.00;0.00;;;;;17.18;60.03;101589.81;5125887;27;45646;-67
2021/06/24 00:44:22;;;;;;;;;0.00;0.00;;;;;17.18;60.35;101591.63;5107430;27;48118;-69
2021/06/24 00:46:51;;;;;;;;;0.00;0.00;;;;;17.19;60.22;101593.28;5125762;27;45486;-67
2021/06/24 00:49:17;;;;;;;;;0.00;0.00;;;;;17.14;60.53;101588.41;5125987;27;45244;-67
2021/06/24 00:51:43;;;;;;;;;0.00;0.00;;;;;17.12;60.64;101589.53;5125839;27;45246;-68
2021/06/24 00:54:08;;;;;;;;;0.00;0.00;;;;;17.08;60.63;101583.66;5106445;27;46979;-67
2021/06/24 00:56:34;;;;;;;;;0.00;0.00;;;;;17.08;60.93;101577.53;5106942;27;45315;-68
2021/06/24 00:59:01;;;;;;;;;0.00;0.00;;;;;17.09;60.37;101576.56;5106758;27;45343;-68
2021/06/24 01:01:27;;;;;;;;;0.00;0.00;;;;;17.12;60.23;101578.91;5125289;27;45293;-68
2021/06/24 01:03:52;;;;;;;;;0.00;0.00;;;;;17.09;60.44;101571.25;5125565;27;45506;-68
2021/06/24 01:06:18;;;;;;;;;0.00;0.00;;;;;17.07;60.49;101562.59;5106049;27;45249;-67
2021/06/24 01:08:43;;;;;;;;;0.00;0.00;;;;;17.08;60.78;101569.56;5117247;27;45370;-67
2021/06/24 01:11:09;;;;;;;;;0.00;0.00;;;;;17.04;60.27;101571.69;5125659;27;45610;-67
2021/06/24 01:13:34;;;;;;;;;0.00;0.00;;;;;16.98;60.41;101562.47;5113390;27;45354;-68
2021/06/24 01:15:59;;;;;;;;;0.00;0.00;;;;;16.99;60.81;101571.25;5123251;27;45231;-68
2021/06/24 01:18:25;;;;;;;;;0.00;0.00;;;;;17.04;60.92;101578.78;5125731;27;45189;-68
2021/06/24 01:20:50;;;;;;;;;0.00;0.00;;;;;17.00;60.66;101562.31;5125565;27;45577;-68
2021/06/24 01:23:16;;;;;;;;;0.00;0.00;;;;;17.02;60.80;101573.63;5106575;27;48354;-67
2021/06/24 01:25:41;;;;;;;;;0.00;0.00;;;;;16.99;60.92;101565.94;5125322;27;45380;-68
2021/06/24 01:28:09;;;;;;;;;0.00;0.00;;;;;16.96;60.79;101567.06;5125358;27;45184;-67
2021/06/24 01:30:37;;;;;;;;;0.00;0.00;;;;;16.93;60.73;101566.50;5125648;27;45743;-68
2021/06/24 01:33:05;;;;;;;;;0.00;0.00;;;;;16.86;61.06;101566.22;5125093;27;45334;-67
2021/06/24 01:35:31;;;;;;;;;0.00;0.00;;;;;16.82;61.02;101562.16;5125249;27;45237;-68
2021/06/24 01:38:02;;;;;;;;;0.00;0.00;;;;;16.82;61.34;101556.88;5125015;27;45285;-68
2021/06/24 01:40:29;;;;;;;;;0.00;0.00;;;;;16.85;61.12;101555.78;5125339;27;45298;-68
2021/06/24 01:42:55;;;;;;;;;0.00;0.00;;;;;16.83;61.17;101550.59;5123359;27;46593;-67
2021/06/24 01:45:21;;;;;;;;;0.00;0.00;;;;;16.81;60.91;101553.38;5125006;27;45255;-67
2021/06/24 01:47:47;;;;;;;;;0.00;0.00;;;;;16.81;61.56;101555.22;5106660;27;45272;-67
2021/06/24 01:50:12;;;;;;;;;0.00;0.00;;;;;16.86;61.30;101550.31;5125057;27;45238;-68
2021/06/24 01:52:43;;;;;;;;;0.00;0.00;;;;;16.88;60.84;101545.69;5124781;27;46202;-68
2021/06/24 01:55:10;;;;;;;;;0.00;0.00;;;;;16.92;61.22;101546.25;5124348;27;45408;-67
2021/06/24 01:57:36;;;;;;;;;0.00;0.00;;;;;16.89;60.86;101543.88;5124707;27;45514;-67
2021/06/24 02:00:08;;;;;;;;;0.00;0.00;;;;;16.91;61.21;101539.25;5106509;27;45187;-67
2021/06/24 02:02:33;;;;;;;;;0.00;0.00;;;;;16.88;60.97;101534.25;5124501;27;45394;-67
2021/06/24 02:04:58;;;;;;;;;0.00;0.00;;;;;16.87;60.81;101533.41;5116965;27;45371;-67
2021/06/24 02:07:24;;;;;;;;;0.00;0.00;;;;;16.90;61.09;101535.78;5118344;27;45333;-67
2021/06/24 02:09:50;;;;;;;;;0.00;0.00;;;;;16.90;60.88;101527.81;5125049;27;45356;-67
2021/06/24 02:12:15;;;;;;;;;0.00;0.00;;;;;16.94;60.74;101531.03;5123647;27;46099;-67
2021/06/24 02:14:41;;;;;;;;;0.00;0.00;;;;;16.98;60.81;101535.09;5111621;27;45178;-67
2021/06/24 02:17:06;;;;;;;;;0.00;0.00;;;;;16.97;60.70;101526.28;5124555;27;45292;-68
2021/06/24 02:19:32;;;;;;;;;0.00;0.00;;;;;16.96;60.25;101519.31;5124765;27;45154;-67
2021/06/24 02:21:57;;;;;;;;;0.00;0.00;;;;;16.97;60.48;101512.16;5105643;27;48397;-68
2021/06/24 02:24:22;;;;;;;;;0.00;0.00;;;;;16.97;60.71;101518.31;5124465;27;45431;-68
2021/06/24 02:26:48;;;;;;;;;0.00;0.00;;;;;16.97;60.42;101515.66;5124478;27;45292;-67
2021/06/24 02:29:14;;;;;;;;;0.00;0.00;;;;;16.94;60.41;101513.28;5124693;27;45451;-67
2021/06/24 02:31:39;;;;;;;;;0.00;0.00;;;;;16.90;60.72;101509.25;5124279;27;45285;-67
2021/06/24 02:34:05;;;;;;;;;0.00;0.00;;;;;16.88;60.39;101515.69;5124186;27;45322;-68
2021/06/24 02:36:31;;;;;;;;;0.00;0.00;;;;;16.87;60.41;101512.19;5124197;27;45453;-67
2021/06/24 02:38:56;;;;;;;;;0.00;0.00;;;;;16.87;60.67;101506.88;5124055;27;45394;-68
2021/06/24 02:41:22;;;;;;;;;0.00;0.00;;;;;16.89;60.48;101504.06;5123910;27;45368;-68
2021/06/24 02:43:47;;;;;;;;;0.00;0.00;;;;;16.89;60.42;101502.28;5105100;27;45711;-68
2021/06/24 02:46:14;;;;;;;;;0.00;0.00;;;;;16.91;60.36;101510.06;5124126;27;45518;-67
2021/06/24 02:48:39;;;;;;;;;0.00;0.00;;;;;16.91;60.60;101515.38;5124002;27;45413;-68
2021/06/24 02:51:05;;;;;;;;;0.00;0.00;;;;;16.91;60.74;101512.72;5123832;27;45184;-67
2021/06/24 02:53:30;;;;;;;;;0.00;0.00;;;;;16.92;60.38;101509.94;5122940;27;45305;-67
2021/06/24 02:55:55;;;;;;;;;0.00;0.00;;;;;16.93;60.51;101502.81;5123590;27;45320;-67
2021/06/24 02:58:21;;;;;;;;;0.00;0.00;;;;;16.92;60.49;101498.50;5123599;27;45233;-67
2021/06/24 03:00:46;;;;;;;;;0.00;0.00;;;;;16.95;60.62;101506.16;5123943;27;45351;-67
2021/06/24 03:03:11;;;;;;;;;0.00;0.00;;;;;16.97;60.22;101504.22;5105131;27;45528;-68
2021/06/24 03:05:37;;;;;;;;;0.00;0.00;;;;;16.98;60.29;101501.41;5111737;27;45325;-68
2021/06/24 03:08:02;;;;;;;;;0.00;0.00;;;;;16.99;60.14;101504.91;5103602;27;45327;-67
2021/06/24 03:10:28;;;;;;;;;0.00;0.00;;;;;16.99;60.33;101507.56;5123547;27;46560;-68
2021/06/24 03:12:53;;;;;;;;;0.00;0.00;;;;;16.98;60.34;101506.72;5117970;27;45352;-67
2021/06/24 03:15:19;;;;;;;;;0.00;0.00;;;;;17.00;60.29;101504.78;5115054;27;45542;-67
2021/06/24 03:17:46;;;;;;;;;0.00;0.00;;;;;16.99;60.33;101505.72;5104844;27;45536;-67
2021/06/24 03:20:13;;;;;;;;;0.00;0.00;;;;;17.00;60.41;101510.06;5092432;27;46430;-67
2021/06/24 03:22:38;;;;;;;;;0.00;0.00;;;;;16.99;59.99;101508.38;5102441;27;45425;-68
2021/06/24 03:25:06;;;;;;;;;0.00;0.00;;;;;17.00;59.95;101507.44;5084568;27;45389;-68
2021/06/24 03:27:31;;;;;;;;;0.00;0.00;;;;;17.01;60.26;101505.59;5102687;27;45519;-68
2021/06/24 03:29:57;;;;;;;;;0.00;0.00;;;;;16.99;59.92;101513.69;5115762;27;46339;-67
2021/06/24 03:32:22;;;;;;;;;0.00;0.00;;;;;16.99;60.20;101513.69;5104295;27;45575;-67
2021/06/24 03:34:47;;;;;;;;;0.00;0.00;;;;;16.99;60.09;101512.88;5123120;27;45425;-67
2021/06/24 03:37:13;;;;;;;;;0.00;0.00;;;;;16.96;59.83;101507.84;5123083;27;45930;-67
2021/06/24 03:39:39;;;;;;;;;0.00;0.00;;;;;16.95;60.12;101509.69;5104657;27;47251;-68
2021/06/24 03:42:04;;;;;;;;;0.00;0.00;;;;;16.88;59.69;101515.69;5104395;27;45192;-67
2021/06/24 03:44:30;;;;;;;;;0.00;0.00;;;;;16.83;59.87;101516.09;5123329;27;45292;-67
2021/06/24 03:46:55;;;;;;;;;0.00;0.00;;;;;16.79;59.92;101507.56;5123363;27;45311;-67
2021/06/24 03:49:20;;;;;;;;;0.00;0.00;;;;;16.74;59.97;101501.84;5123222;27;45457;-67
2021/06/24 03:51:46;;;;;;;;;0.00;0.00;;;;;16.73;59.79;101494.00;5122835;27;45383;-67
2021/06/24 03:54:11;;;;;;;;;0.00;0.00;;;;;16.73;59.89;101507.28;5103821;27;45425;-67
2021/06/24 03:56:37;;;;;;;;;0.00;0.00;;;;;16.72;59.93;101502.97;5122902;27;45340;-67
2021/06/24 03:59:02;;;;;;;;;0.00;0.00;;;;;16.74;60.21;101507.16;5122832;27;45386;-67
2021/06/24 04:01:29;;;;;;;;;0.00;0.00;;;;;16.72;59.88;101500.31;5122610;27;45331;-67
2021/06/24 04:03:54;;;;;;;;;0.00;0.00;;;;;16.75;59.85;101505.31;5103914;27;45255;-69
2021/06/24 04:06:20;;;;;;;;;0.00;0.00;;;;;16.70;59.73;101505.75;5102369;27;45504;-68
2021/06/24 04:08:45;;;;;;;;;0.00;0.00;;;;;16.71;60.25;101511.88;5101631;27;45425;-68
2021/06/24 04:11:11;;;;;;;;;0.00;0.00;;;;;16.70;59.66;101510.22;5121227;27;45248;-66
2021/06/24 04:13:37;;;;;;;;;0.00;0.00;;;;;16.64;59.80;101513.44;5110331;27;45229;-67
2021/06/24 04:16:03;;;;;;;;;0.00;0.00;;;;;16.63;60.13;101517.91;5121491;27;45400;-68
2021/06/24 04:18:29;;;;;;;;;0.00;0.00;;;;;16.63;60.22;101504.66;5122707;27;45183;-69
2021/06/24 04:20:54;;;;;;;;;0.00;0.00;;;;;16.70;60.12;101515.53;5122359;27;45134;-69
2021/06/24 04:23:19;;;;;;;;;0.00;0.00;;;;;16.70;59.90;101520.84;5122439;27;45799;-69
2021/06/24 04:25:45;;;;;;;;;0.00;0.00;;;;;16.69;60.02;101513.84;5122383;27;45465;-69
2021/06/24 04:28:10;;;;;;;;;0.00;0.00;;;;;16.68;60.10;101509.53;5103702;27;47185;-69
2021/06/24 04:30:35;;;;;;;;;0.00;0.00;;;;;16.71;59.99;101514.53;5103641;27;45341;-68
2021/06/24 04:33:01;;;;;;;;;0.00;0.00;;;;;16.73;59.68;101516.06;5104109;27;45342;-68
2021/06/24 04:35:27;;;;;;;;;0.00;0.00;;;;;16.77;59.56;101521.94;5122412;27;45553;-67
2021/06/24 04:37:53;;;;;;;;;0.00;0.00;;;;;16.78;59.52;101527.13;5121976;27;45274;-68
2021/06/24 04:40:19;;;;;;;;;0.00;0.00;;;;;16.76;59.43;101517.59;5122266;27;45379;-68
2021/06/24 04:42:45;;;;;;;;;0.00;0.00;;;;;16.78;59.73;101531.56;5103723;27;45353;-68
2021/06/24 04:45:13;;;;;;;;;0.00;0.00;;;;;16.83;59.44;101524.06;5122471;27;45233;-68
2021/06/24 04:47:38;;;;;;;;;0.00;0.00;;;;;16.89;59.36;101536.78;5122061;27;45366;-68
2021/06/24 04:50:05;;;;;;;;;0.00;0.00;;;;;16.95;59.09;101532.69;5121983;27;45233;-68
2021/06/24 04:52:30;;;;;;;;;0.00;0.00;;;;;16.94;59.23;101539.00;5122045;27;45277;-69
2021/06/24 04:54:55;;;;;;;;;0.00;0.00;;;;;16.97;59.08;101536.06;5103210;27;45380;-68
2021/06/24 04:57:21;;;;;;;;;0.00;0.00;;;;;17.03;59.04;101535.50;5121918;27;45415;-68
2021/06/24 04:59:46;;;;;;;;;0.00;0.00;;;;;17.08;59.07;101524.44;5103330;27;45942;-67
2021/06/24 05:02:13;;;;;;;;;0.00;0.00;;;;;17.12;58.57;101529.31;5121873;27;45292;-67
2021/06/24 05:04:39;;;;;;;;;0.00;0.00;;;;;17.16;58.84;101532.53;5116800;27;45445;-67
2021/06/24 05:07:08;;;;;;;;;0.00;0.00;;;;;17.15;59.05;101533.53;5101191;27;46483;-67
2021/06/24 05:09:39;;;;;;;;;0.00;0.00;;;;;17.19;58.61;101535.75;5120640;27;45259;-68
2021/06/24 05:12:08;;;;;;;;;0.00;0.00;;;;;17.18;58.62;101539.38;5121945;27;45296;-68
2021/06/24 05:14:34;;;;;;;;;0.00;0.00;;;;;17.21;59.11;101532.94;5114991;27;45550;-67
2021/06/24 05:17:00;;;;;;;;;0.00;0.00;;;;;17.20;58.35;101537.41;5102600;27;45343;-67
2021/06/24 05:19:26;;;;;;;;;0.00;0.00;;;;;17.17;58.65;101531.53;5124778;27;45327;-70
2021/06/24 05:21:52;;;;;;;;;0.00;0.00;;;;;17.15;58.39;101528.22;5106883;27;45399;-67
2021/06/24 05:24:17;;;;;;;;;0.00;0.00;;;;;17.17;58.44;101531.53;5125155;27;45372;-67
2021/06/24 05:26:42;;;;;;;;;0.00;0.00;;;;;17.18;58.75;101534.06;5106226;27;47129;-66
2021/06/24 05:29:08;;;;;;;;;0.00;0.00;;;;;17.21;58.98;101533.78;5124534;27;45246;-68
2021/06/24 05:31:33;;;;;;;;;0.00;0.00;;;;;17.26;58.50;101532.53;5106546;27;45483;-68
2021/06/24 05:33:59;;;;;;;;;0.00;0.00;;;;;17.28;58.15;101520.78;5124865;27;45304;-67
2021/06/24 05:36:25;;;;;;;;;0.00;0.00;;;;;17.28;58.02;101527.88;5124814;27;45434;-66
2021/06/24 05:38:50;;;;;;;;;0.00;0.00;;;;;17.28;58.24;101525.22;5124244;27;45269;-66
2021/06/24 05:41:15;;;;;;;;;0.00;0.00;;;;;17.29;58.49;101518.97;5124811;27;45299;-67
2021/06/24 05:43:41;;;;;;;;;0.00;0.00;;;;;17.27;57.91;101520.91;5124722;27;45473;-67
2021/06/24 05:46:06;;;;;;;;;0.00;0.00;;;;;17.21;58.16;101528.47;5124829;27;45265;-67
2021/06/24 05:48:33;;;;;;;;;0.00;0.00;;;;;17.20;58.54;101528.63;5124448;27;45230;-67
2021/06/24 05:50:59;;;;;;;;;0.00;0.00;;;;;17.18;58.49;101520.78;5124164;27;45493;-67
2021/06/24 05:53:25;;;;;;;;;0.00;0.00;;;;;17.16;58.03;101525.41;5105178;27;45554;-67
2021/06/24 05:55:51;;;;;;;;;0.00;0.00;;;;;17.13;58.22;101520.41;5105133;27;47943;-67
2021/06/24 05:58:18;;;;;;;;;0.00;0.00;;;;;17.14;58.36;101530.00;5124356;27;45413;-67
2021/06/24 06:00:44;;;;;;;;;0.00;0.00;;;;;17.14;58.40;101537.97;5124359;27;45397;-68
2021/06/24 06:03:10;;;;;;;;;0.00;0.00;;;;;17.16;58.26;101541.31;5105317;27;45557;-68
2021/06/24 06:05:36;;;;;;;;;0.00;0.00;;;;;17.20;58.48;101545.38;5105781;27;47963;-69
2021/06/24 06:08:04;;;;;;;;;0.00;0.00;;;;;17.19;58.01;101540.19;5123825;27;45218;-67
2021/06/24 06:10:30;;;;;;;;;0.00;0.00;;;;;17.17;58.33;101543.03;5124058;27;45333;-68
2021/06/24 06:12:55;;;;;;;;;0.00;0.00;;;;;17.16;58.13;101545.81;5098487;27;45667;-67
2021/06/24 06:15:21;;;;;;;;;0.00;0.00;;;;;17.12;58.30;101539.94;5116288;27;46506;-68
2021/06/24 06:17:46;;;;;;;;;0.00;0.00;;;;;17.10;57.83;101538.41;5123786;27;45444;-68
2021/06/24 06:20:12;;;;;;;;;0.00;0.00;;;;;17.10;58.14;101551.69;5123944;27;45607;-68
2021/06/24 06:22:38;;;;;;;;;0.00;0.00;;;;;17.05;58.46;101559.25;5104869;27;45342;-68
2021/06/24 06:25:04;;;;;;;;;0.00;0.00;;;;;17.07;58.73;101557.28;5124257;27;45494;-68
2021/06/24 06:27:29;;;;;;;;;0.00;0.00;;;;;17.11;58.25;101542.75;5122731;27;45240;-68
2021/06/24 06:29:54;;;;;;;;;0.00;0.00;;;;;17.17;58.42;101550.97;5123554;27;45287;-68
2021/06/24 06:32:21;;;;;;;;;0.00;0.00;;;;;17.20;58.63;101556.00;5123658;27;45165;-68
2021/06/24 06:34:47;;;;;;;;;0.00;0.00;;;;;17.26;59.04;101553.78;5123891;27;46141;-68
2021/06/24 06:37:12;;;;;;;;;0.00;0.00;;;;;17.26;58.11;101559.91;5123279;27;45206;-68
2021/06/24 06:39:37;;;;;;;;;0.00;0.00;;;;;17.29;57.78;101559.63;5104753;27;45290;-68
2021/06/24 06:42:03;;;;;;;;;0.00;0.00;;;;;17.30;58.06;101563.97;5123024;27;45148;-70
2021/06/24 06:44:28;;;;;;;;;0.00;0.00;;;;;17.30;58.15;101563.97;5104678;27;47008;-68
2021/06/24 06:46:54;;;;;;;;;0.00;0.00;;;;;17.30;58.40;101561.31;5104521;27;45216;-67
2021/06/24 06:49:20;;;;;;;;;0.00;0.00;;;;;17.30;58.22;101563.97;5123394;27;45431;-67
2021/06/24 06:51:45;;;;;;;;;0.00;0.00;;;;;17.23;57.33;101565.47;5123313;27;45308;-69
2021/06/24 06:54:11;;;;;;;;;0.00;0.00;;;;;17.14;57.69;101572.50;5103904;27;48372;-68
2021/06/24 06:56:36;;;;;;;;;0.00;0.00;;;;;17.12;58.11;101568.31;5122815;27;45330;-67
2021/06/24 06:59:05;;;;;;;;;0.00;0.00;;;;;17.09;57.82;101572.09;5123054;27;45294;-68
2021/06/24 07:01:30;;;;;;;;;0.00;0.00;;;;;17.08;58.08;101574.88;5123434;27;45221;-67
2021/06/24 07:03:56;;;;;;;;;0.00;0.00;;;;;17.02;58.08;101574.47;5123148;27;46692;-68
2021/06/24 07:06:21;;;;;;;;;0.00;0.00;;;;;16.99;58.30;101573.91;5103229;27;45273;-68
2021/06/24 07:08:46;;;;;;;;;0.00;0.00;;;;;17.01;57.93;101579.91;5102013;27;45309;-67
2021/06/24 07:11:12;;;;;;;;;0.00;0.00;;;;;17.06;58.05;101576.81;5102322;27;45610;-67
2021/06/24 07:13:38;;;;;;;;;0.00;0.00;;;;;17.12;58.41;101579.75;5102352;27;46140;-66
2021/06/24 07:16:04;;;;;;;;;0.00;0.00;;;;;17.17;58.03;101582.84;5101666;27;45168;-68
2021/06/24 07:18:29;;;;;;;;;0.00;0.00;;;;;17.20;57.80;101573.75;5114811;27;45462;-68
2021/06/24 07:20:54;;;;;;;;;0.00;0.00;;;;;17.22;57.91;101575.28;5122954;27;45346;-68
2021/06/24 07:23:20;;;;;;;;;0.00;0.00;;;;;17.25;57.73;101573.31;5103916;27;47538;-67
2021/06/24 07:25:46;;;;;;;;;0.00;0.00;;;;;17.22;57.77;101575.28;5122533;27;45354;-67
2021/06/24 07:28:11;;;;;;;;;0.00;0.00;;;;;17.26;57.81;101572.34;5103787;27;45515;-68
2021/06/24 07:30:37;;;;;;;;;0.00;0.00;;;;;17.32;57.20;101566.44;5122764;27;45408;-68
2021/06/24 07:33:03;;;;;;;;;0.00;0.00;;;;;17.37;57.49;101570.34;5122517;27;46187;-67
2021/06/24 07:35:28;;;;;;;;;0.00;0.00;;;;;17.44;57.55;101565.31;5122458;27;45306;-68
2021/06/24 07:37:53;;;;;;;;;0.00;0.00;;;;;17.49;57.45;101567.53;5122293;27;45391;-67
2021/06/24 07:40:19;;;;;;;;;0.00;0.00;;;;;17.56;57.11;101568.66;5123102;27;45288;-68
2021/06/24 07:42:45;;;;;;;;;0.00;0.00;;;;;17.67;56.86;101572.91;5122343;27;46762;-68
2021/06/24 07:45:11;;;;;;;;;0.00;0.00;;;;;17.73;56.81;101567.03;5122419;27;45237;-67
2021/06/24 07:47:36;;;;;;;;;0.00;0.00;;;;;17.82;56.47;101566.22;5104561;27;45247;-68
2021/06/24 07:50:03;;;;;;;;;0.00;0.00;;;;;17.91;56.26;101575.13;5122742;27;45425;-68
2021/06/24 07:52:28;;;;;;;;;0.00;0.00;;;;;18.01;56.00;101573.22;5122271;27;47452;-68
2021/06/24 07:54:54;;;;;;;;;0.00;0.00;;;;;18.14;55.24;101571.09;5122188;27;45220;-68
2021/06/24 07:57:20;;;;;;;;;0.00;0.00;;;;;18.19;56.09;101578.63;5122467;27;45286;-69
2021/06/24 07:59:45;;;;;;;;;0.00;0.00;;;;;18.30;55.78;101573.09;5103768;27;45401;-68
2021/06/24 08:02:11;;;;;;;;;0.00;0.00;;;;;18.38;55.16;101577.63;5122076;27;45323;-67
2021/06/24 08:04:36;;;;;;;;;0.00;0.00;;;;;18.42;55.13;101577.22;5117761;27;45411;-68
2021/06/24 08:07:02;;;;;;;;;0.00;0.00;;;;;18.56;54.96;101570.53;5083194;27;45399;-69
2021/06/24 08:09:28;;;;;;;;;0.00;0.00;;;;;18.61;54.81;101572.72;5083106;27;45470;-68
2021/06/24 08:11:54;;;;;;;;;0.00;0.00;;;;;18.69;54.57;101577.31;5093375;27;47858;-68
2021/06/24 08:14:21;;;;;;;;;0.00;0.00;;;;;18.79;54.83;101576.28;5103576;27;45435;-68
2021/06/24 08:16:47;;;;;;;;;0.00;0.00;;;;;18.89;54.71;101575.34;5101722;27;45469;-68
2021/06/24 08:19:12;;;;;;;;;0.00;0.00;;;;;18.99;54.11;101576.13;5097296;27;45584;-69
2021/06/24 08:21:38;;;;;;;;;0.00;0.00;;;;;19.05;53.70;101573.66;5083176;27;46920;-67
2021/06/24 08:24:04;;;;;;;;;0.00;0.00;;;;;19.04;54.10;101573.81;5118992;27;45223;-68
2021/06/24 08:26:29;;;;;;;;;0.00;0.00;;;;;19.11;53.88;101574.03;5103399;27;45448;-68
2021/06/24 08:28:55;;;;;;;;;0.00;0.00;;;;;19.22;53.47;101579.09;5121645;27;45272;-68
2021/06/24 08:31:20;;;;;;;;;0.00;0.00;;;;;19.25;53.40;101581.47;5121841;27;46185;-68
2021/06/24 08:33:46;;;;;;;;;0.00;0.00;;;;;19.25;53.01;101589.47;5122034;27;45249;-68
2021/06/24 08:36:11;;;;;;;;;0.00;0.00;;;;;19.27;53.13;101580.31;5122085;27;45265;-68
2021/06/24 08:38:37;;;;;;;;;0.00;0.00;;;;;19.36;53.38;101581.22;5121278;27;45327;-69
2021/06/24 08:41:03;;;;;;;;;0.00;0.00;;;;;19.41;53.18;101589.56;5121572;27;45416;-68
2021/06/24 08:43:28;;;;;;;;;0.00;0.00;;;;;19.44;52.52;101589.25;5103022;27;45431;-68
2021/06/24 08:46:01;;;;;;;;;0.00;0.00;;;;;19.45;52.48;101582.94;5121731;27;45369;-68
2021/06/24 08:48:26;;;;;;;;;0.00;0.00;;;;;19.51;52.69;101588.63;5121708;27;45419;-68
2021/06/24 08:50:52;;;;;;;;;0.00;0.00;;;;;19.58;52.71;101579.00;5121435;27;45483;-67
2021/06/24 08:53:19;;;;;;;;;0.00;0.00;;;;;19.68;52.25;101590.41;5124796;27;45220;-68
2021/06/24 08:55:47;;;;;;;;;0.00;0.00;;;;;19.71;52.09;101584.78;5124949;27;45449;-68
2021/06/24 08:58:13;;;;;;;;;0.00;0.00;;;;;19.83;51.96;101588.03;5125033;27;45594;-68
2021/06/24 09:00:39;;;;;;;;;0.00;0.00;;;;;20.01;52.06;101578.09;5125046;27;45389;-67
2021/06/24 09:03:21;;;;;;;;;0.00;0.00;;;;;20.15;51.07;101582.00;5124554;27;45471;-67
2021/06/24 09:05:50;;;;;;;;;0.00;0.00;;;;;20.22;51.33;101587.50;5110766;27;45253;-67
2021/06/24 09:08:25;;;;;;;;;0.00;0.00;;;;;20.30;51.22;101590.19;5086588;27;45445;-68
2021/06/24 09:11:10;;;;;;;;;0.00;0.00;;;;;20.26;50.47;101591.53;5120085;27;45478;-68
2021/06/24 09:13:36;;;;;;;;;0.00;0.00;;;;;20.20;50.86;101593.00;5102603;27;45722;-69
2021/06/24 09:16:18;;;;;;;;;0.00;0.00;;;;;20.21;50.96;101589.31;5122765;27;45519;-68
2021/06/24 09:18:43;;;;;;;;;0.00;0.00;;;;;20.26;51.08;101591.53;5124557;27;45229;-68
2021/06/24 09:21:24;;;;;;;;;0.00;0.00;;;;;20.32;50.37;101592.69;5124789;27;45205;-69
2021/06/24 09:23:52;;;;;;;;;0.00;0.00;;;;;20.26;50.75;101588.84;5124167;27;45322;-68
2021/06/24 09:26:19;;;;;;;;;0.00;0.00;;;;;20.34;50.92;101590.69;5125226;27;45215;-69
2021/06/24 09:28:53;;;;;;;;;0.00;0.00;;;;;20.46;51.16;101595.56;5124757;27;45279;-68
2021/06/24 09:31:24;;;;;;;;;0.00;0.00;;;;;20.54;50.55;101602.78;5124550;27;46277;-68
2021/06/24 09:33:50;;;;;;;;;0.00;0.00;;;;;20.62;50.31;101602.78;5124117;27;46486;-68
2021/06/24 09:36:35;;;;;;;;;0.00;0.00;;;;;20.82;49.99;101603.34;5105771;27;45352;-67
2021/06/24 09:39:04;;;;;;;;;0.00;0.00;;;;;20.87;49.66;101601.00;5123777;27;45256;-68
2021/06/24 09:41:29;;;;;;;;;0.00;0.00;;;;;20.90;49.40;101603.31;5124241;27;45743;-68
2021/06/24 09:43:55;;;;;;;;;0.00;0.00;;;;;20.89;49.15;101596.34;5124253;27;45399;-68
2021/06/24 09:46:23;;;;;;;;;0.00;0.00;;;;;20.92;49.60;101605.00;5124683;27;45368;-68
2021/06/24 09:48:53;;;;;;;;;0.00;0.00;;;;;20.94;49.50;101598.50;5125002;27;45320;-69
2021/06/24 09:51:22;;;;;;;;;0.00;0.00;;;;;20.99;48.94;101616.69;5124155;27;45743;-69
2021/06/24 09:53:47;;;;;;;;;0.00;0.00;;;;;20.93;49.35;101609.34;5124010;27;45331;-68
2021/06/24 09:56:31;;;;;;;;;0.00;0.00;;;;;20.85;48.67;101619.03;5123579;27;45347;-68
2021/06/24 09:58:59;;;;;;;;;0.00;0.00;;;;;20.78;48.87;101620.69;5124193;27;45278;-68
2021/06/24 10:01:30;;;;;;;;;0.00;0.00;;;;;20.73;49.39;101619.50;5123932;27;46407;-69
2021/06/24 10:03:58;;;;;;;;;0.00;0.00;;;;;20.70;49.06;101612.66;5104520;27;45318;-67
2021/06/24 10:06:24;;;;;;;;;0.00;0.00;;;;;20.64;48.61;101610.66;5104991;27;45499;-69
2021/06/24 10:08:52;;;;;;;;;0.00;0.00;;;;;20.59;49.09;101618.31;5115358;27;45497;-68
2021/06/24 10:11:17;;;;;;;;;0.00;0.00;;;;;20.55;49.07;101620.44;5104543;27;48126;-67
2021/06/24 10:13:43;;;;;;;;;0.00;0.00;;;;;20.53;49.21;101621.59;5092989;27;45788;-68
2021/06/24 10:16:10;;;;;;;;;0.00;0.00;;;;;20.47;49.17;101613.25;5121775;27;45982;-68
2021/06/24 10:18:37;;;;;;;;;0.00;0.00;;;;;20.48;49.21;101625.59;5124265;27;45328;-68
2021/06/24 10:21:03;;;;;;;;;0.00;0.00;;;;;20.53;49.77;101616.28;5123034;27;45437;-68
2021/06/24 10:23:29;;;;;;;;;0.00;0.00;;;;;20.61;49.03;101627.84;5124063;27;45446;-70
2021/06/24 10:25:56;;;;;;;;;0.00;0.00;;;;;20.75;49.40;101620.19;5124137;27;45308;-68
2021/06/24 10:28:22;;;;;;;;;0.00;0.00;;;;;20.95;49.02;101629.56;5105883;27;45466;-69
2021/06/24 10:30:48;;;;;;;;;0.00;0.00;;;;;21.09;48.23;101609.34;5123406;27;45319;-70
2021/06/24 10:33:16;;;;;;;;;0.00;0.00;;;;;21.39;48.04;101620.38;5123164;27;45227;-67
2021/06/24 10:35:41;;;;;;;;;0.00;0.00;;;;;21.65;47.69;101621.00;5123157;27;45341;-68
2021/06/24 10:38:08;;;;;;;;;0.00;0.00;;;;;21.94;47.50;101608.88;5122469;27;45373;-68
2021/06/24 10:40:36;;;;;;;;;0.00;0.00;;;;;22.29;47.33;101615.63;5104647;27;47180;-66
2021/06/24 10:43:03;;;;;;;;;0.00;0.00;;;;;22.64;46.27;101609.94;5123443;27;45323;-70
2021/06/24 10:45:29;;;;;;;;;0.00;0.00;;;;;22.96;45.65;101616.88;5123385;27;45208;-68
2021/06/24 10:47:56;;;;;;;;;0.00;0.00;;;;;23.45;45.30;101619.16;5123129;27;45525;-68
2021/06/24 10:50:33;;;;;;;;;0.00;0.00;;;;;23.99;44.41;101614.59;5122990;27;46181;-69
2021/06/24 10:52:58;;;;;;;;;0.00;0.00;;;;;24.41;43.52;101607.66;5122852;27;45307;-68
2021/06/24 10:55:39;;;;;;;;;0.00;0.00;;;;;24.90;42.50;101604.25;5104045;27;45488;-68
2021/06/24 10:58:10;;;;;;;;;0.00;0.00;;;;;25.24;41.71;101608.91;5122612;27;45175;-67
2021/06/24 11:00:46;;;;;;;;;0.00;0.00;;;;;25.36;40.86;101610.06;5103883;27;48414;-68
2021/06/24 11:03:14;;;;;;;;;0.00;0.00;;;;;25.43;41.41;101609.28;5122547;27;45315;-67
2021/06/24 11:05:42;;;;;;;;;0.00;0.00;;;;;25.47;41.37;101602.47;5109958;27;45258;-69
2021/06/24 11:08:20;;;;;;;;;0.00;0.00;;;;;25.57;40.29;101600.25;5101940;27;45528;-69
2021/06/24 11:11:03;;;;;;;;;0.00;0.00;;;;;25.81;39.36;101604.34;5101878;27;46345;-68
2021/06/24 11:13:34;;;;;;;;;0.00;0.00;;;;;26.04;39.54;101603.22;5101729;27;45383;-68
2021/06/24 11:16:01;;;;;;;;;0.00;0.00;;;;;26.48;38.92;101585.75;5120011;27;45287;-69
2021/06/24 11:18:33;;;;;;;;;0.00;0.00;;;;;26.92;37.73;101600.56;5122610;27;45428;-68
2021/06/24 11:21:03;;;;;;;;;0.00;0.00;;;;;27.32;37.29;101589.78;5122458;27;45478;-68